Gadsden, AL

12:37 PM CST on February 19, 2018 (GMT -0600)
Gadsden Municipal

Weather History for KGAD - September, 2012

Change the Weather History Date:

Thursday, September 20, 2012

  Actual Average Record
Temperature  
Mean Temperature 62 °F -  
Max Temperature 78 °F 80 °F 96 °F (1931)
Min Temperature 46 °F 57 °F 46 °F (2012)
Degree Days  
Heating Degree Days 3    
Growing Degree Days 12 (Base 50)    
Moisture  
Dew Point 53 °F    
Average Humidity 75    
Maximum Humidity 94    
Minimum Humidity 39    
Precipitation  
Precipitation 0.00 in - - ()
Sea Level Pressure  
Sea Level Pressure 30.09 in    
Wind  
Wind Speed 1 mph (SE)    
Max Wind Speed 6 mph    
Max Gust Speed -    
Visibility 10 miles    
Events      
Averages and records for this station are not official NWS values.
T = Trace of Precipitation, MM = Missing Value Source: NWS Daily Summary

Daily Weather History Graph

Daily Weather History Graph

Search for Another Location

Airport or City:

Trip Planner

Search our weather history database for the weather conditions in past years. The results will help you decide how hot, cold, wet, or windy it might be!

Date:

Astronomy

Sep. 20, 2012 Rise Set
Actual Time 6:31 AM CDT 6:43 PM CDT
Civil Twilight 6:06 AM CDT 7:08 PM CDT
Nautical Twilight 5:37 AM CDT 7:37 PM CDT
Astronomical Twilight 5:07 AM CDT 8:06 PM CDT
Moon 11:32 AM CDT (9/20) 10:01 PM CDT (9/20)
Length of Visible Light 13h 01m
Length of Day
12h 11m
Waxing Crescent, 27% of the Moon is Illuminated
Sep 20
Waxing Crescent
Sep 22
First Quarter
Sep 29
Full
Oct 8
Last Quarter
Oct 15
New

Hourly Weather History & Observations

Time (CDT) Temp. Dew Point Humidity Pressure Visibility Wind Dir Wind Speed Gust Speed Precip Events Conditions
12:15 AM 51.8 °F 48.2 °F 88% 30.10 in 10.0 mi Calm Calm - N/A   Clear
12:35 AM 53.6 °F 50.0 °F 88% 30.10 in 10.0 mi Calm Calm - N/A   Clear
12:55 AM 51.8 °F 48.2 °F 88% 30.10 in 10.0 mi Calm Calm - N/A   Clear
1:15 AM 51.8 °F 48.2 °F 88% 30.10 in 10.0 mi Calm Calm - N/A   Clear
1:35 AM 51.8 °F 48.2 °F 88% 30.10 in 10.0 mi Calm Calm - N/A   Clear
1:55 AM 51.8 °F 48.2 °F 88% 30.10 in 10.0 mi Calm Calm - N/A   Clear
2:15 AM 51.8 °F 48.2 °F 88% 30.10 in 10.0 mi Calm Calm - N/A   Clear
2:35 AM 51.8 °F 48.2 °F 88% 30.10 in 10.0 mi Calm Calm - N/A   Clear
2:55 AM 51.8 °F 48.2 °F 88% 30.09 in 10.0 mi Calm Calm - N/A   Clear
3:15 AM 50.0 °F 46.4 °F 87% 30.09 in 10.0 mi Calm Calm - N/A   Clear
3:35 AM 50.0 °F 46.4 °F 87% 30.09 in 10.0 mi Calm Calm - N/A   Clear
3:55 AM 48.2 °F 46.4 °F 93% 30.10 in 10.0 mi Calm Calm - N/A   Clear
4:15 AM 48.2 °F 46.4 °F 93% 30.10 in 10.0 mi Calm Calm - N/A   Clear
4:35 AM 50.0 °F 46.4 °F 87% 30.10 in 10.0 mi Calm Calm - N/A   Clear
4:55 AM 50.0 °F 46.4 °F 87% 30.10 in 10.0 mi Calm Calm - N/A   Clear
5:15 AM 48.2 °F 46.4 °F 93% 30.10 in 10.0 mi Calm Calm - N/A   Clear
5:35 AM 48.2 °F 46.4 °F 93% 30.10 in 10.0 mi Calm Calm - N/A   Clear
5:55 AM 48.2 °F 46.4 °F 93% 30.11 in 10.0 mi Calm Calm - N/A   Clear
6:15 AM 48.2 °F 46.4 °F 93% 30.11 in 10.0 mi Calm Calm - N/A   Clear
6:35 AM 46.4 °F 44.6 °F 93% 30.12 in 10.0 mi Calm Calm - N/A   Clear
6:55 AM 48.2 °F 46.4 °F 93% 30.12 in 10.0 mi Calm Calm - N/A   Clear
7:15 AM 50.0 °F 48.2 °F 94% 30.13 in 10.0 mi Calm Calm - N/A   Clear
7:35 AM 51.8 °F 48.2 °F 88% 30.13 in 10.0 mi Calm Calm - N/A   Clear
8:35 AM 59.0 °F 53.6 °F 82% 30.13 in 10.0 mi Calm Calm - N/A   Clear
8:55 AM 60.8 °F 53.6 °F 77% 30.13 in 10.0 mi Calm Calm - N/A   Clear
9:15 AM 62.6 °F 53.6 °F 72% 30.13 in 10.0 mi Calm Calm - N/A   Clear
9:35 AM 64.4 °F 55.4 °F 73% 30.13 in 10.0 mi ENE 4.6 mph - N/A   Clear
9:55 AM 66.2 °F 55.4 °F 68% 30.14 in 10.0 mi ENE 4.6 mph - N/A   Clear
10:15 AM 68.0 °F 57.2 °F 68% 30.13 in 10.0 mi East 5.8 mph - N/A   Clear
10:35 AM 69.8 °F 59.0 °F 68% 30.13 in 10.0 mi NE 5.8 mph - N/A   Clear
10:55 AM 69.8 °F 60.8 °F 73% 30.13 in 10.0 mi ENE 5.8 mph - N/A   Clear
11:15 AM 71.6 °F 60.8 °F 69% 30.12 in 10.0 mi ENE 4.6 mph - N/A   Clear
11:35 AM 71.6 °F 60.8 °F 69% 30.11 in 10.0 mi ENE 5.8 mph - N/A   Clear
11:55 AM 73.4 °F 60.8 °F 65% 30.11 in 10.0 mi East 5.8 mph - N/A   Clear
12:15 PM 73.4 °F 59.0 °F 61% 30.11 in 10.0 mi East 3.5 mph - N/A   Clear
12:35 PM 73.4 °F 57.2 °F 57% 30.10 in 10.0 mi Calm Calm - N/A   Clear
12:55 PM 75.2 °F 55.4 °F 50% 30.09 in 10.0 mi ENE 3.5 mph - N/A   Clear
1:15 PM 75.2 °F 55.4 °F 50% 30.08 in 10.0 mi ENE 3.5 mph - N/A   Clear
1:35 PM 75.2 °F 55.4 °F 50% 30.08 in 10.0 mi Calm Calm - N/A   Clear
1:55 PM 77.0 °F 57.2 °F 50% 30.07 in 10.0 mi Calm Calm - N/A   Clear
2:15 PM 77.0 °F 55.4 °F 47% 30.06 in 10.0 mi SSE 3.5 mph - N/A   Clear
2:55 PM 78.8 °F 55.4 °F 44% 30.04 in 10.0 mi Calm Calm - N/A   Clear
3:15 PM 78.8 °F 53.6 °F 42% 30.04 in 10.0 mi SW 4.6 mph - N/A   Clear
3:35 PM 78.8 °F 53.6 °F 42% 30.03 in 10.0 mi WSW 5.8 mph - N/A   Clear
3:55 PM 78.8 °F 51.8 °F 39% 30.03 in 10.0 mi West 4.6 mph - N/A   Clear
4:15 PM 78.8 °F 53.6 °F 42% 30.03 in 10.0 mi South 3.5 mph - N/A   Clear
4:35 PM 78.8 °F 53.6 °F 42% 30.04 in 10.0 mi SW 4.6 mph - N/A   Clear
4:55 PM 78.8 °F 53.6 °F 42% 30.04 in 10.0 mi SW 3.5 mph - N/A   Clear
5:15 PM 78.8 °F 53.6 °F 42% 30.04 in 10.0 mi Calm Calm - N/A   Clear
5:55 PM 73.4 °F 57.2 °F 57% 30.03 in 10.0 mi SSW 3.5 mph - N/A   Clear
6:15 PM 71.6 °F 55.4 °F 57% 30.04 in 10.0 mi South 3.5 mph - N/A   Clear
6:35 PM 68.0 °F 57.2 °F 68% 30.04 in 10.0 mi Calm Calm - N/A   Clear
6:55 PM 66.2 °F 57.2 °F 73% 30.04 in 10.0 mi Calm Calm - N/A   Clear
7:15 PM 64.4 °F 57.2 °F 77% 30.04 in 10.0 mi WSW 3.5 mph - N/A   Clear
7:35 PM 64.4 °F 57.2 °F 77% 30.05 in 10.0 mi Calm Calm - N/A   Clear
7:55 PM 64.4 °F 57.2 °F 77% 30.05 in 10.0 mi Calm Calm - N/A   Clear
8:15 PM 62.6 °F 57.2 °F 82% 30.05 in 10.0 mi Calm Calm - N/A   Clear
8:35 PM 62.6 °F 57.2 °F 82% 30.06 in 10.0 mi Calm Calm - N/A   Clear
8:55 PM 60.8 °F 57.2 °F 88% 30.06 in 10.0 mi Calm Calm - N/A   Clear
9:15 PM 60.8 °F 57.2 °F 88% 30.07 in 10.0 mi Calm Calm - N/A   Clear
9:35 PM 60.8 °F 55.4 °F 82% 30.07 in 10.0 mi West 4.6 mph - N/A   Clear
9:55 PM 60.8 °F 55.4 °F 82% 30.07 in 10.0 mi Calm Calm - N/A   Clear
10:15 PM 59.0 °F 55.4 °F 88% 30.08 in 10.0 mi Calm Calm - N/A   Clear
10:35 PM 59.0 °F 55.4 °F 88% 30.08 in 10.0 mi Calm Calm - N/A   Clear
10:55 PM 57.2 °F 55.4 °F 94% 30.08 in 10.0 mi Calm Calm - N/A   Clear
11:15 PM 57.2 °F 53.6 °F 88% 30.08 in 10.0 mi Calm Calm - N/A   Clear
11:35 PM 57.2 °F 53.6 °F 88% 30.09 in 10.0 mi Calm Calm - N/A   Clear
11:55 PM 55.4 °F 53.6 °F 94% 30.08 in 10.0 mi Calm Calm - N/A   Clear